sensor_id;sensor_type;location;lat;lon;timestamp;P1;durP1;ratioP1;P2;durP2;ratioP2
65853;SDS011;52627;48.838;2.402;2023-02-02T00:01:38;13.50;;;2.60;;
65853;SDS011;52627;48.838;2.402;2023-02-02T00:04:07;11.50;;;2.80;;
65853;SDS011;52627;48.838;2.402;2023-02-02T00:06:35;13.40;;;2.60;;
65853;SDS011;52627;48.838;2.402;2023-02-02T00:09:03;15.00;;;3.60;;
65853;SDS011;52627;48.838;2.402;2023-02-02T00:11:31;11.10;;;2.70;;
65853;SDS011;52627;48.838;2.402;2023-02-02T00:13:58;10.90;;;2.50;;
65853;SDS011;52627;48.838;2.402;2023-02-02T00:18:59;14.70;;;2.70;;
65853;SDS011;52627;48.838;2.402;2023-02-02T00:21:28;11.90;;;2.50;;
65853;SDS011;52627;48.838;2.402;2023-02-02T00:23:55;15.60;;;2.70;;
65853;SDS011;52627;48.838;2.402;2023-02-02T00:26:23;8.80;;;2.30;;
65853;SDS011;52627;48.838;2.402;2023-02-02T00:28:51;9.50;;;2.40;;
65853;SDS011;52627;48.838;2.402;2023-02-02T00:31:18;14.30;;;3.10;;
65853;SDS011;52627;48.838;2.402;2023-02-02T00:33:47;14.10;;;2.60;;
65853;SDS011;52627;48.838;2.402;2023-02-02T00:36:17;10.70;;;2.40;;
65853;SDS011;52627;48.838;2.402;2023-02-02T00:38:47;12.60;;;2.80;;
65853;SDS011;52627;48.838;2.402;2023-02-02T00:41:16;12.40;;;2.40;;
65853;SDS011;52627;48.838;2.402;2023-02-02T00:43:44;13.00;;;2.60;;
65853;SDS011;52627;48.838;2.402;2023-02-02T00:46:16;15.10;;;3.30;;
65853;SDS011;52627;48.838;2.402;2023-02-02T00:51:11;16.00;;;3.10;;
65853;SDS011;52627;48.838;2.402;2023-02-02T00:53:39;11.80;;;3.00;;
65853;SDS011;52627;48.838;2.402;2023-02-02T00:56:06;12.30;;;2.40;;
65853;SDS011;52627;48.838;2.402;2023-02-02T00:58:33;13.00;;;2.90;;
65853;SDS011;52627;48.838;2.402;2023-02-02T01:01:01;13.40;;;2.50;;
65853;SDS011;52627;48.838;2.402;2023-02-02T01:03:28;12.00;;;2.80;;
65853;SDS011;52627;48.838;2.402;2023-02-02T01:05:56;14.00;;;2.30;;
65853;SDS011;52627;48.838;2.402;2023-02-02T01:08:23;12.30;;;3.00;;
65853;SDS011;52627;48.838;2.402;2023-02-02T01:10:51;15.20;;;2.70;;
65853;SDS011;52627;48.838;2.402;2023-02-02T01:13:18;11.20;;;2.50;;
65853;SDS011;52627;48.838;2.402;2023-02-02T01:15:46;11.20;;;2.40;;
65853;SDS011;52627;48.838;2.402;2023-02-02T01:18:13;10.10;;;2.70;;
65853;SDS011;52627;48.838;2.402;2023-02-02T01:20:40;12.40;;;2.90;;
65853;SDS011;52627;48.838;2.402;2023-02-02T01:23:08;14.10;;;2.80;;
65853;SDS011;52627;48.838;2.402;2023-02-02T01:25:35;14.00;;;2.50;;
65853;SDS011;52627;48.838;2.402;2023-02-02T01:28:04;14.60;;;3.60;;
65853;SDS011;52627;48.838;2.402;2023-02-02T01:30:32;10.30;;;2.70;;
65853;SDS011;52627;48.838;2.402;2023-02-02T01:32:59;10.10;;;2.60;;
65853;SDS011;52627;48.838;2.402;2023-02-02T01:35:27;10.60;;;2.30;;
65853;SDS011;52627;48.838;2.402;2023-02-02T01:37:54;11.40;;;3.00;;
65853;SDS011;52627;48.838;2.402;2023-02-02T01:40:21;9.50;;;2.30;;
65853;SDS011;52627;48.838;2.402;2023-02-02T01:42:49;14.70;;;2.80;;
65853;SDS011;52627;48.838;2.402;2023-02-02T01:45:22;14.20;;;3.40;;
65853;SDS011;52627;48.838;2.402;2023-02-02T01:47:55;16.20;;;2.90;;
65853;SDS011;52627;48.838;2.402;2023-02-02T01:50:28;13.00;;;3.30;;
65853;SDS011;52627;48.838;2.402;2023-02-02T01:52:59;11.90;;;3.30;;
65853;SDS011;52627;48.838;2.402;2023-02-02T01:55:29;14.50;;;2.80;;
65853;SDS011;52627;48.838;2.402;2023-02-02T01:58:01;13.40;;;2.30;;
65853;SDS011;52627;48.838;2.402;2023-02-02T02:00:31;10.40;;;2.60;;
65853;SDS011;52627;48.838;2.402;2023-02-02T02:03:03;14.60;;;4.00;;
65853;SDS011;52627;48.838;2.402;2023-02-02T02:05:37;13.60;;;2.30;;
65853;SDS011;52627;48.838;2.402;2023-02-02T02:11:10;14.70;;;2.60;;
65853;SDS011;52627;48.838;2.402;2023-02-02T02:13:38;11.80;;;2.40;;
65853;SDS011;52627;48.838;2.402;2023-02-02T02:36:03;16.50;;;2.80;;
65853;SDS011;52627;48.838;2.402;2023-02-02T02:38:49;13.60;;;2.70;;
65853;SDS011;52627;48.838;2.402;2023-02-02T02:41:26;12.30;;;2.50;;
65853;SDS011;52627;48.838;2.402;2023-02-02T02:44:03;13.70;;;2.40;;
65853;SDS011;52627;48.838;2.402;2023-02-02T02:46:33;12.80;;;2.40;;
65853;SDS011;52627;48.838;2.402;2023-02-02T02:49:01;12.40;;;2.90;;
65853;SDS011;52627;48.838;2.402;2023-02-02T02:51:47;8.90;;;2.30;;
65853;SDS011;52627;48.838;2.402;2023-02-02T02:59:29;11.20;;;2.70;;
65853;SDS011;52627;48.838;2.402;2023-02-02T03:08:22;15.80;;;3.00;;
65853;SDS011;52627;48.838;2.402;2023-02-02T03:10:55;13.00;;;2.20;;
65853;SDS011;52627;48.838;2.402;2023-02-02T03:13:25;10.70;;;2.40;;
65853;SDS011;52627;48.838;2.402;2023-02-02T03:15:53;14.10;;;2.40;;
65853;SDS011;52627;48.838;2.402;2023-02-02T03:18:25;11.10;;;2.60;;
65853;SDS011;52627;48.838;2.402;2023-02-02T03:20:54;13.80;;;3.40;;
65853;SDS011;52627;48.838;2.402;2023-02-02T03:23:21;13.50;;;2.20;;
65853;SDS011;52627;48.838;2.402;2023-02-02T03:25:49;11.50;;;2.50;;
65853;SDS011;52627;48.838;2.402;2023-02-02T03:28:17;11.40;;;2.50;;
65853;SDS011;52627;48.838;2.402;2023-02-02T03:30:46;10.70;;;2.20;;
65853;SDS011;52627;48.838;2.402;2023-02-02T03:33:14;11.40;;;2.50;;
65853;SDS011;52627;48.838;2.402;2023-02-02T03:35:42;13.70;;;2.30;;
65853;SDS011;52627;48.838;2.402;2023-02-02T03:38:10;10.60;;;2.20;;
65853;SDS011;52627;48.838;2.402;2023-02-02T03:40:39;15.10;;;2.40;;
65853;SDS011;52627;48.838;2.402;2023-02-02T03:43:06;10.70;;;2.30;;
65853;SDS011;52627;48.838;2.402;2023-02-02T03:45:34;11.90;;;3.20;;
65853;SDS011;52627;48.838;2.402;2023-02-02T03:48:03;14.20;;;2.70;;
65853;SDS011;52627;48.838;2.402;2023-02-02T03:50:32;12.00;;;2.30;;
65853;SDS011;52627;48.838;2.402;2023-02-02T03:53:00;11.80;;;3.00;;
65853;SDS011;52627;48.838;2.402;2023-02-02T03:55:27;13.70;;;2.30;;
65853;SDS011;52627;48.838;2.402;2023-02-02T03:57:55;9.10;;;2.10;;
65853;SDS011;52627;48.838;2.402;2023-02-02T04:00:22;10.80;;;2.30;;
65853;SDS011;52627;48.838;2.402;2023-02-02T04:02:50;11.10;;;2.00;;
65853;SDS011;52627;48.838;2.402;2023-02-02T04:05:17;16.30;;;3.00;;
65853;SDS011;52627;48.838;2.402;2023-02-02T04:07:45;11.60;;;2.40;;
65853;SDS011;52627;48.838;2.402;2023-02-02T04:10:13;12.10;;;2.30;;
65853;SDS011;52627;48.838;2.402;2023-02-02T04:12:41;11.00;;;2.70;;
65853;SDS011;52627;48.838;2.402;2023-02-02T04:15:09;11.00;;;2.10;;
65853;SDS011;52627;48.838;2.402;2023-02-02T04:17:37;8.50;;;1.70;;
65853;SDS011;52627;48.838;2.402;2023-02-02T04:20:05;11.70;;;3.10;;
65853;SDS011;52627;48.838;2.402;2023-02-02T04:22:33;12.10;;;2.80;;
65853;SDS011;52627;48.838;2.402;2023-02-02T04:25:01;14.50;;;2.50;;
65853;SDS011;52627;48.838;2.402;2023-02-02T04:27:28;10.70;;;2.60;;
65853;SDS011;52627;48.838;2.402;2023-02-02T04:29:59;13.10;;;2.50;;
65853;SDS011;52627;48.838;2.402;2023-02-02T04:32:26;11.10;;;2.30;;
65853;SDS011;52627;48.838;2.402;2023-02-02T04:34:54;13.10;;;2.70;;
65853;SDS011;52627;48.838;2.402;2023-02-02T04:37:21;11.80;;;2.20;;
65853;SDS011;52627;48.838;2.402;2023-02-02T04:39:49;10.00;;;1.90;;
65853;SDS011;52627;48.838;2.402;2023-02-02T04:42:16;11.40;;;2.40;;
65853;SDS011;52627;48.838;2.402;2023-02-02T04:44:44;13.50;;;2.40;;
65853;SDS011;52627;48.838;2.402;2023-02-02T04:50:07;15.40;;;2.60;;
65853;SDS011;52627;48.838;2.402;2023-02-02T04:52:35;14.70;;;2.30;;
65853;SDS011;52627;48.838;2.402;2023-02-02T04:55:03;13.10;;;2.20;;
65853;SDS011;52627;48.838;2.402;2023-02-02T04:57:30;10.60;;;2.50;;
65853;SDS011;52627;48.838;2.402;2023-02-02T04:59:58;13.40;;;2.70;;
65853;SDS011;52627;48.838;2.402;2023-02-02T05:02:25;7.80;;;2.40;;
65853;SDS011;52627;48.838;2.402;2023-02-02T05:04:53;6.80;;;2.50;;
65853;SDS011;52627;48.838;2.402;2023-02-02T05:07:20;10.00;;;2.60;;
65853;SDS011;52627;48.838;2.402;2023-02-02T05:09:47;10.40;;;2.20;;
65853;SDS011;52627;48.838;2.402;2023-02-02T05:12:15;12.70;;;2.30;;
65853;SDS011;52627;48.838;2.402;2023-02-02T05:14:42;7.50;;;2.00;;
65853;SDS011;52627;48.838;2.402;2023-02-02T05:17:10;10.10;;;2.10;;
65853;SDS011;52627;48.838;2.402;2023-02-02T05:19:37;12.40;;;2.90;;
65853;SDS011;52627;48.838;2.402;2023-02-02T05:22:05;10.40;;;2.10;;
65853;SDS011;52627;48.838;2.402;2023-02-02T05:24:32;11.60;;;2.30;;
65853;SDS011;52627;48.838;2.402;2023-02-02T05:27:00;14.00;;;2.40;;
65853;SDS011;52627;48.838;2.402;2023-02-02T05:29:31;9.40;;;2.00;;
65853;SDS011;52627;48.838;2.402;2023-02-02T05:31:58;11.80;;;3.20;;
65853;SDS011;52627;48.838;2.402;2023-02-02T05:34:25;9.20;;;2.10;;
65853;SDS011;52627;48.838;2.402;2023-02-02T05:36:53;12.10;;;2.40;;
65853;SDS011;52627;48.838;2.402;2023-02-02T05:39:20;11.30;;;2.20;;
65853;SDS011;52627;48.838;2.402;2023-02-02T05:41:48;9.50;;;2.40;;
65853;SDS011;52627;48.838;2.402;2023-02-02T05:44:15;11.40;;;2.10;;
65853;SDS011;52627;48.838;2.402;2023-02-02T05:46:43;11.90;;;2.60;;
65853;SDS011;52627;48.838;2.402;2023-02-02T05:49:12;12.90;;;3.40;;
65853;SDS011;52627;48.838;2.402;2023-02-02T05:51:47;10.50;;;2.50;;
65853;SDS011;52627;48.838;2.402;2023-02-02T05:54:16;10.90;;;2.30;;
65853;SDS011;52627;48.838;2.402;2023-02-02T05:56:47;15.30;;;2.00;;
65853;SDS011;52627;48.838;2.402;2023-02-02T05:59:16;9.10;;;2.10;;
65853;SDS011;52627;48.838;2.402;2023-02-02T06:01:45;13.60;;;3.10;;
65853;SDS011;52627;48.838;2.402;2023-02-02T06:04:13;10.90;;;2.40;;
65853;SDS011;52627;48.838;2.402;2023-02-02T06:06:41;10.90;;;2.50;;
65853;SDS011;52627;48.838;2.402;2023-02-02T06:09:08;9.00;;;2.00;;
65853;SDS011;52627;48.838;2.402;2023-02-02T06:11:36;9.90;;;2.10;;
65853;SDS011;52627;48.838;2.402;2023-02-02T06:14:05;11.60;;;2.40;;
65853;SDS011;52627;48.838;2.402;2023-02-02T06:16:33;9.50;;;2.20;;
65853;SDS011;52627;48.838;2.402;2023-02-02T06:19:01;11.50;;;2.70;;
65853;SDS011;52627;48.838;2.402;2023-02-02T06:21:28;12.40;;;2.30;;
65853;SDS011;52627;48.838;2.402;2023-02-02T06:23:59;8.80;;;2.10;;
65853;SDS011;52627;48.838;2.402;2023-02-02T06:26:29;11.70;;;2.80;;
65853;SDS011;52627;48.838;2.402;2023-02-02T06:28:57;10.50;;;2.30;;
65853;SDS011;52627;48.838;2.402;2023-02-02T06:31:24;9.50;;;2.50;;
65853;SDS011;52627;48.838;2.402;2023-02-02T06:33:54;14.00;;;2.40;;
65853;SDS011;52627;48.838;2.402;2023-02-02T06:36:24;12.70;;;2.10;;
65853;SDS011;52627;48.838;2.402;2023-02-02T06:38:54;10.40;;;2.50;;
65853;SDS011;52627;48.838;2.402;2023-02-02T06:41:23;9.70;;;2.40;;
65853;SDS011;52627;48.838;2.402;2023-02-02T06:43:50;14.60;;;2.30;;
65853;SDS011;52627;48.838;2.402;2023-02-02T06:46:18;12.40;;;2.00;;
65853;SDS011;52627;48.838;2.402;2023-02-02T06:48:45;8.20;;;1.70;;
65853;SDS011;52627;48.838;2.402;2023-02-02T06:51:13;13.60;;;2.40;;
65853;SDS011;52627;48.838;2.402;2023-02-02T06:53:40;11.00;;;2.30;;
65853;SDS011;52627;48.838;2.402;2023-02-02T06:56:11;9.60;;;2.20;;
65853;SDS011;52627;48.838;2.402;2023-02-02T06:58:39;11.10;;;2.10;;
65853;SDS011;52627;48.838;2.402;2023-02-02T07:01:09;11.80;;;2.30;;
65853;SDS011;52627;48.838;2.402;2023-02-02T07:06:23;12.60;;;2.60;;
65853;SDS011;52627;48.838;2.402;2023-02-02T07:08:51;15.20;;;3.00;;
65853;SDS011;52627;48.838;2.402;2023-02-02T07:11:30;10.10;;;2.60;;
65853;SDS011;52627;48.838;2.402;2023-02-02T07:14:01;17.80;;;3.60;;
65853;SDS011;52627;48.838;2.402;2023-02-02T07:16:29;10.60;;;2.50;;
65853;SDS011;52627;48.838;2.402;2023-02-02T07:18:57;14.90;;;2.80;;
65853;SDS011;52627;48.838;2.402;2023-02-02T07:21:25;12.20;;;2.90;;
65853;SDS011;52627;48.838;2.402;2023-02-02T07:23:56;12.10;;;2.70;;
65853;SDS011;52627;48.838;2.402;2023-02-02T07:26:23;11.50;;;3.50;;
65853;SDS011;52627;48.838;2.402;2023-02-02T07:28:52;13.00;;;3.40;;
65853;SDS011;52627;48.838;2.402;2023-02-02T07:31:22;11.10;;;3.60;;
65853;SDS011;52627;48.838;2.402;2023-02-02T07:33:51;13.90;;;3.40;;
65853;SDS011;52627;48.838;2.402;2023-02-02T07:36:20;15.80;;;3.60;;
65853;SDS011;52627;48.838;2.402;2023-02-02T07:38:51;11.70;;;3.10;;
65853;SDS011;52627;48.838;2.402;2023-02-02T07:41:24;13.20;;;3.60;;
65853;SDS011;52627;48.838;2.402;2023-02-02T07:43:51;13.20;;;3.30;;
65853;SDS011;52627;48.838;2.402;2023-02-02T07:46:19;9.20;;;2.90;;
65853;SDS011;52627;48.838;2.402;2023-02-02T07:48:47;9.40;;;3.30;;
65853;SDS011;52627;48.838;2.402;2023-02-02T07:51:16;11.20;;;3.20;;
65853;SDS011;52627;48.838;2.402;2023-02-02T07:53:45;16.40;;;3.20;;
65853;SDS011;52627;48.838;2.402;2023-02-02T07:56:16;8.80;;;2.50;;
65853;SDS011;52627;48.838;2.402;2023-02-02T07:58:51;12.70;;;2.80;;
65853;SDS011;52627;48.838;2.402;2023-02-02T08:01:20;15.20;;;2.60;;
65853;SDS011;52627;48.838;2.402;2023-02-02T08:03:49;9.60;;;2.40;;
65853;SDS011;52627;48.838;2.402;2023-02-02T08:06:19;12.00;;;3.20;;
65853;SDS011;52627;48.838;2.402;2023-02-02T08:08:52;11.10;;;2.20;;
65853;SDS011;52627;48.838;2.402;2023-02-02T08:11:20;14.50;;;3.10;;
65853;SDS011;52627;48.838;2.402;2023-02-02T08:13:50;13.80;;;3.90;;
65853;SDS011;52627;48.838;2.402;2023-02-02T08:16:19;12.50;;;2.80;;
65853;SDS011;52627;48.838;2.402;2023-02-02T08:18:48;17.80;;;2.70;;
65853;SDS011;52627;48.838;2.402;2023-02-02T08:21:16;12.10;;;3.00;;
65853;SDS011;52627;48.838;2.402;2023-02-02T08:23:44;13.00;;;4.00;;
65853;SDS011;52627;48.838;2.402;2023-02-02T08:26:18;10.60;;;2.40;;
65853;SDS011;52627;48.838;2.402;2023-02-02T08:28:52;8.80;;;2.90;;
65853;SDS011;52627;48.838;2.402;2023-02-02T08:31:24;14.10;;;3.10;;
65853;SDS011;52627;48.838;2.402;2023-02-02T08:33:54;15.60;;;3.00;;
65853;SDS011;52627;48.838;2.402;2023-02-02T08:36:25;12.00;;;2.90;;
65853;SDS011;52627;48.838;2.402;2023-02-02T08:38:54;12.70;;;2.80;;
65853;SDS011;52627;48.838;2.402;2023-02-02T08:41:28;13.60;;;3.10;;
65853;SDS011;52627;48.838;2.402;2023-02-02T08:43:56;16.90;;;3.10;;
65853;SDS011;52627;48.838;2.402;2023-02-02T08:46:24;16.70;;;3.40;;
65853;SDS011;52627;48.838;2.402;2023-02-02T08:48:52;8.10;;;2.70;;
65853;SDS011;52627;48.838;2.402;2023-02-02T08:51:19;14.40;;;2.90;;
65853;SDS011;52627;48.838;2.402;2023-02-02T08:53:47;13.80;;;2.80;;
65853;SDS011;52627;48.838;2.402;2023-02-02T08:56:17;11.70;;;2.60;;
65853;SDS011;52627;48.838;2.402;2023-02-02T08:58:54;13.80;;;3.10;;
65853;SDS011;52627;48.838;2.402;2023-02-02T09:01:26;11.60;;;2.60;;
65853;SDS011;52627;48.838;2.402;2023-02-02T09:04:00;12.70;;;2.50;;
65853;SDS011;52627;48.838;2.402;2023-02-02T09:06:33;11.30;;;2.70;;
65853;SDS011;52627;48.838;2.402;2023-02-02T09:09:03;9.80;;;2.30;;
65853;SDS011;52627;48.838;2.402;2023-02-02T09:11:34;14.90;;;2.50;;
65853;SDS011;52627;48.838;2.402;2023-02-02T09:14:02;10.50;;;2.10;;
65853;SDS011;52627;48.838;2.402;2023-02-02T09:16:33;10.10;;;2.10;;
65853;SDS011;52627;48.838;2.402;2023-02-02T09:19:02;11.30;;;2.60;;
65853;SDS011;52627;48.838;2.402;2023-02-02T09:21:30;13.30;;;2.50;;
65853;SDS011;52627;48.838;2.402;2023-02-02T09:24:10;9.30;;;1.80;;
65853;SDS011;52627;48.838;2.402;2023-02-02T09:26:39;10.40;;;2.10;;
65853;SDS011;52627;48.838;2.402;2023-02-02T09:29:11;8.30;;;2.00;;
65853;SDS011;52627;48.838;2.402;2023-02-02T09:31:40;12.80;;;2.20;;
65853;SDS011;52627;48.838;2.402;2023-02-02T09:34:10;10.00;;;2.00;;
65853;SDS011;52627;48.838;2.402;2023-02-02T09:36:39;6.30;;;1.70;;
65853;SDS011;52627;48.838;2.402;2023-02-02T09:39:07;6.40;;;2.50;;
65853;SDS011;52627;48.838;2.402;2023-02-02T09:55:34;10.70;;;3.60;;
65853;SDS011;52627;48.838;2.402;2023-02-02T09:58:58;9.20;;;2.10;;
65853;SDS011;52627;48.838;2.402;2023-02-02T10:01:15;13.80;;;2.10;;
65853;SDS011;52627;48.838;2.402;2023-02-02T10:06:54;6.90;;;2.00;;
65853;SDS011;52627;48.838;2.402;2023-02-02T10:09:32;10.20;;;2.30;;
65853;SDS011;52627;48.838;2.402;2023-02-02T10:17:57;8.50;;;2.10;;
65853;SDS011;52627;48.838;2.402;2023-02-02T10:20:46;11.70;;;2.40;;
65853;SDS011;52627;48.838;2.402;2023-02-02T10:23:41;7.60;;;2.20;;
65853;SDS011;52627;48.838;2.402;2023-02-02T10:26:19;14.10;;;2.20;;
65853;SDS011;52627;48.838;2.402;2023-02-02T10:31:42;7.80;;;2.20;;
65853;SDS011;52627;48.838;2.402;2023-02-02T10:40:20;12.40;;;2.60;;
65853;SDS011;52627;48.838;2.402;2023-02-02T10:45:55;12.90;;;2.30;;
65853;SDS011;52627;48.838;2.402;2023-02-02T10:48:27;10.60;;;2.40;;
65853;SDS011;52627;48.838;2.402;2023-02-02T10:51:09;7.80;;;2.00;;
65853;SDS011;52627;48.838;2.402;2023-02-02T10:53:39;9.60;;;2.30;;
65853;SDS011;52627;48.838;2.402;2023-02-02T10:56:10;12.60;;;2.80;;
65853;SDS011;52627;48.838;2.402;2023-02-02T10:59:01;6.50;;;2.40;;
65853;SDS011;52627;48.838;2.402;2023-02-02T11:01:32;10.70;;;2.50;;
65853;SDS011;52627;48.838;2.402;2023-02-02T11:03:59;9.50;;;2.40;;
65853;SDS011;52627;48.838;2.402;2023-02-02T11:06:45;7.80;;;2.10;;
65853;SDS011;52627;48.838;2.402;2023-02-02T11:09:19;8.90;;;2.00;;
65853;SDS011;52627;48.838;2.402;2023-02-02T11:11:52;8.90;;;2.20;;
65853;SDS011;52627;48.838;2.402;2023-02-02T11:14:35;9.00;;;2.20;;
65853;SDS011;52627;48.838;2.402;2023-02-02T11:17:23;10.70;;;2.40;;
65853;SDS011;52627;48.838;2.402;2023-02-02T11:19:52;9.20;;;2.10;;
65853;SDS011;52627;48.838;2.402;2023-02-02T11:24:59;7.90;;;2.30;;
65853;SDS011;52627;48.838;2.402;2023-02-02T11:27:37;9.60;;;2.20;;
65853;SDS011;52627;48.838;2.402;2023-02-02T11:30:30;6.10;;;1.80;;
65853;SDS011;52627;48.838;2.402;2023-02-02T11:33:37;8.50;;;1.70;;
65853;SDS011;52627;48.838;2.402;2023-02-02T11:36:18;7.20;;;1.90;;
65853;SDS011;52627;48.838;2.402;2023-02-02T11:38:47;9.30;;;2.20;;
65853;SDS011;52627;48.838;2.402;2023-02-02T11:41:14;11.10;;;1.50;;
65853;SDS011;52627;48.838;2.402;2023-02-02T11:43:53;9.40;;;1.90;;
65853;SDS011;52627;48.838;2.402;2023-02-02T11:46:30;7.40;;;1.60;;
65853;SDS011;52627;48.838;2.402;2023-02-02T11:49:03;6.00;;;1.70;;
65853;SDS011;52627;48.838;2.402;2023-02-02T11:51:34;9.50;;;2.50;;
65853;SDS011;52627;48.838;2.402;2023-02-02T11:54:23;7.50;;;1.80;;
65853;SDS011;52627;48.838;2.402;2023-02-02T11:56:59;6.90;;;2.30;;
65853;SDS011;52627;48.838;2.402;2023-02-02T12:02:25;5.90;;;1.40;;
65853;SDS011;52627;48.838;2.402;2023-02-02T12:05:13;5.90;;;1.60;;
65853;SDS011;52627;48.838;2.402;2023-02-02T12:07:47;6.50;;;1.70;;
65853;SDS011;52627;48.838;2.402;2023-02-02T12:10:37;6.10;;;1.50;;
65853;SDS011;52627;48.838;2.402;2023-02-02T12:13:15;6.50;;;1.50;;
65853;SDS011;52627;48.838;2.402;2023-02-02T12:16:04;5.70;;;1.20;;
65853;SDS011;52627;48.838;2.402;2023-02-02T12:18:56;6.70;;;1.70;;
65853;SDS011;52627;48.838;2.402;2023-02-02T12:21:39;7.60;;;1.70;;
65853;SDS011;52627;48.838;2.402;2023-02-02T12:24:33;10.20;;;1.70;;
65853;SDS011;52627;48.838;2.402;2023-02-02T12:27:49;6.10;;;1.60;;
65853;SDS011;52627;48.838;2.402;2023-02-02T12:30:53;5.50;;;1.20;;
65853;SDS011;52627;48.838;2.402;2023-02-02T13:00:21;6.30;;;1.90;;
65853;SDS011;52627;48.838;2.402;2023-02-02T13:03:13;9.60;;;1.60;;
65853;SDS011;52627;48.838;2.402;2023-02-02T13:05:59;6.10;;;1.50;;
65853;SDS011;52627;48.838;2.402;2023-02-02T13:09:12;4.90;;;1.40;;
65853;SDS011;52627;48.838;2.402;2023-02-02T13:11:52;4.90;;;1.40;;
65853;SDS011;52627;48.838;2.402;2023-02-02T13:14:29;7.30;;;1.60;;
65853;SDS011;52627;48.838;2.402;2023-02-02T13:17:04;4.60;;;1.10;;
65853;SDS011;52627;48.838;2.402;2023-02-02T13:19:39;6.00;;;1.70;;
65853;SDS011;52627;48.838;2.402;2023-02-02T13:22:17;6.40;;;1.50;;
65853;SDS011;52627;48.838;2.402;2023-02-02T13:24:49;6.40;;;1.20;;
65853;SDS011;52627;48.838;2.402;2023-02-02T13:27:20;5.90;;;1.90;;
65853;SDS011;52627;48.838;2.402;2023-02-02T13:32:45;4.00;;;1.30;;
65853;SDS011;52627;48.838;2.402;2023-02-02T13:35:51;6.70;;;1.40;;
65853;SDS011;52627;48.838;2.402;2023-02-02T13:38:22;8.70;;;2.20;;
65853;SDS011;52627;48.838;2.402;2023-02-02T13:40:54;6.00;;;2.20;;
65853;SDS011;52627;48.838;2.402;2023-02-02T13:46:35;8.40;;;1.70;;
65853;SDS011;52627;48.838;2.402;2023-02-02T13:49:17;7.00;;;2.10;;
65853;SDS011;52627;48.838;2.402;2023-02-02T14:01:04;5.90;;;2.00;;
65853;SDS011;52627;48.838;2.402;2023-02-02T14:03:40;6.40;;;2.10;;
65853;SDS011;52627;48.838;2.402;2023-02-02T14:06:15;6.90;;;3.30;;
65853;SDS011;52627;48.838;2.402;2023-02-02T14:08:56;5.10;;;1.80;;
65853;SDS011;52627;48.838;2.402;2023-02-02T14:11:37;7.80;;;2.10;;
65853;SDS011;52627;48.838;2.402;2023-02-02T14:14:14;7.70;;;1.80;;
65853;SDS011;52627;48.838;2.402;2023-02-02T14:17:02;7.10;;;2.00;;
65853;SDS011;52627;48.838;2.402;2023-02-02T14:24:44;7.10;;;1.50;;
65853;SDS011;52627;48.838;2.402;2023-02-02T14:34:58;4.60;;;1.30;;
65853;SDS011;52627;48.838;2.402;2023-02-02T14:37:42;5.70;;;1.50;;
65853;SDS011;52627;48.838;2.402;2023-02-02T14:43:05;5.30;;;1.50;;
65853;SDS011;52627;48.838;2.402;2023-02-02T14:48:33;7.00;;;1.50;;
65853;SDS011;52627;48.838;2.402;2023-02-02T14:51:01;7.10;;;1.90;;
65853;SDS011;52627;48.838;2.402;2023-02-02T14:53:34;8.10;;;1.70;;
65853;SDS011;52627;48.838;2.402;2023-02-02T14:56:07;6.00;;;1.50;;
65853;SDS011;52627;48.838;2.402;2023-02-02T15:06:51;4.90;;;1.50;;
65853;SDS011;52627;48.838;2.402;2023-02-02T15:14:36;7.90;;;1.40;;
65853;SDS011;52627;48.838;2.402;2023-02-02T15:20:28;4.10;;;1.10;;
65853;SDS011;52627;48.838;2.402;2023-02-02T15:23:02;6.10;;;2.50;;
65853;SDS011;52627;48.838;2.402;2023-02-02T15:28:23;6.00;;;1.50;;
65853;SDS011;52627;48.838;2.402;2023-02-02T15:31:17;5.10;;;1.50;;
65853;SDS011;52627;48.838;2.402;2023-02-02T15:34:16;4.50;;;1.20;;
65853;SDS011;52627;48.838;2.402;2023-02-02T15:39:45;7.20;;;1.50;;
65853;SDS011;52627;48.838;2.402;2023-02-02T15:42:21;4.90;;;1.20;;
65853;SDS011;52627;48.838;2.402;2023-02-02T15:48:06;4.90;;;1.20;;
65853;SDS011;52627;48.838;2.402;2023-02-02T15:50:45;5.40;;;1.40;;
65853;SDS011;52627;48.838;2.402;2023-02-02T15:53:31;4.80;;;1.20;;
65853;SDS011;52627;48.838;2.402;2023-02-02T15:56:27;4.20;;;1.20;;
65853;SDS011;52627;48.838;2.402;2023-02-02T15:58:58;4.10;;;1.10;;
65853;SDS011;52627;48.838;2.402;2023-02-02T16:01:29;4.00;;;1.10;;
65853;SDS011;52627;48.838;2.402;2023-02-02T16:04:19;5.10;;;1.10;;
65853;SDS011;52627;48.838;2.402;2023-02-02T16:06:49;6.70;;;1.30;;
65853;SDS011;52627;48.838;2.402;2023-02-02T16:09:26;3.30;;;1.10;;
65853;SDS011;52627;48.838;2.402;2023-02-02T16:11:55;4.70;;;1.30;;
65853;SDS011;52627;48.838;2.402;2023-02-02T16:14:22;3.80;;;1.10;;
65853;SDS011;52627;48.838;2.402;2023-02-02T16:16:50;8.00;;;1.70;;
65853;SDS011;52627;48.838;2.402;2023-02-02T16:19:21;4.50;;;1.20;;
65853;SDS011;52627;48.838;2.402;2023-02-02T16:22:00;5.40;;;1.80;;
65853;SDS011;52627;48.838;2.402;2023-02-02T16:24:33;6.20;;;1.50;;
65853;SDS011;52627;48.838;2.402;2023-02-02T16:27:05;5.50;;;1.40;;
65853;SDS011;52627;48.838;2.402;2023-02-02T16:29:34;4.40;;;1.20;;
65853;SDS011;52627;48.838;2.402;2023-02-02T16:32:02;3.40;;;0.90;;
65853;SDS011;52627;48.838;2.402;2023-02-02T16:39:55;4.90;;;1.40;;
65853;SDS011;52627;48.838;2.402;2023-02-02T16:42:30;4.10;;;1.20;;
65853;SDS011;52627;48.838;2.402;2023-02-02T16:44:59;6.00;;;1.20;;
65853;SDS011;52627;48.838;2.402;2023-02-02T16:52:50;4.40;;;1.30;;
65853;SDS011;52627;48.838;2.402;2023-02-02T16:55:20;4.20;;;1.10;;
65853;SDS011;52627;48.838;2.402;2023-02-02T16:57:49;5.10;;;1.40;;
65853;SDS011;52627;48.838;2.402;2023-02-02T17:00:23;5.70;;;1.30;;
65853;SDS011;52627;48.838;2.402;2023-02-02T17:05:37;6.70;;;1.70;;
65853;SDS011;52627;48.838;2.402;2023-02-02T17:08:12;4.50;;;1.40;;
65853;SDS011;52627;48.838;2.402;2023-02-02T17:10:41;7.30;;;1.70;;
65853;SDS011;52627;48.838;2.402;2023-02-02T17:15:57;4.80;;;1.30;;
65853;SDS011;52627;48.838;2.402;2023-02-02T17:18:25;6.90;;;1.80;;
65853;SDS011;52627;48.838;2.402;2023-02-02T17:20:55;4.30;;;1.30;;
65853;SDS011;52627;48.838;2.402;2023-02-02T17:23:31;3.40;;;1.30;;
65853;SDS011;52627;48.838;2.402;2023-02-02T17:25:58;3.80;;;1.20;;
65853;SDS011;52627;48.838;2.402;2023-02-02T17:28:26;5.20;;;2.30;;
65853;SDS011;52627;48.838;2.402;2023-02-02T17:30:57;4.90;;;1.40;;
65853;SDS011;52627;48.838;2.402;2023-02-02T17:33:31;6.40;;;2.00;;
65853;SDS011;52627;48.838;2.402;2023-02-02T17:36:00;6.20;;;1.50;;
65853;SDS011;52627;48.838;2.402;2023-02-02T17:38:29;5.10;;;1.50;;
65853;SDS011;52627;48.838;2.402;2023-02-02T17:41:01;4.10;;;1.50;;
65853;SDS011;52627;48.838;2.402;2023-02-02T17:43:30;5.90;;;1.50;;
65853;SDS011;52627;48.838;2.402;2023-02-02T17:45:59;4.70;;;1.40;;
65853;SDS011;52627;48.838;2.402;2023-02-02T17:48:26;4.60;;;1.60;;
65853;SDS011;52627;48.838;2.402;2023-02-02T17:50:54;5.60;;;1.80;;
65853;SDS011;52627;48.838;2.402;2023-02-02T17:53:21;4.60;;;2.00;;
65853;SDS011;52627;48.838;2.402;2023-02-02T17:55:49;5.60;;;1.40;;
65853;SDS011;52627;48.838;2.402;2023-02-02T17:58:18;7.10;;;1.80;;
65853;SDS011;52627;48.838;2.402;2023-02-02T18:00:48;6.40;;;1.80;;
65853;SDS011;52627;48.838;2.402;2023-02-02T18:03:25;6.70;;;1.60;;
65853;SDS011;52627;48.838;2.402;2023-02-02T18:06:00;6.30;;;1.80;;
65853;SDS011;52627;48.838;2.402;2023-02-02T18:08:29;5.20;;;1.50;;
65853;SDS011;52627;48.838;2.402;2023-02-02T18:10:58;4.70;;;1.60;;
65853;SDS011;52627;48.838;2.402;2023-02-02T18:13:26;5.80;;;1.70;;
65853;SDS011;52627;48.838;2.402;2023-02-02T18:15:54;5.00;;;1.80;;
65853;SDS011;52627;48.838;2.402;2023-02-02T18:18:22;4.90;;;1.70;;